Warning: Javascript must be enabled to use all the features on this page!


Page Loading - Please Wait...

* We've detected you're using a mobile device. Find our Next Generation Station Page here.
Click to hideNews Bulletins

Peak Streamflow for the Nation

USGS 10297500 W WALKER RV AT HOYE BRG NR WELLINGTON, NV

Douglas County, Nevada
Hydrologic Unit Code 16050302
Latitude  38°43'41.03", Longitude 119°25'40.3" NAD83
Drainage area 497  square miles
Gage datum 4,980.00 feet above NGVD29
Output formats
Table
Graph
Tab-separated file
peakfq (watstore) format
Reselect output format
Water
Year
Date Gage
Height
(feet)
Stream-
flow
(cfs)
1921 1921-06-08   1,3806
1922 1922-06-06   2,1806
1923 1923-06-03   1,4306
1924 1924-05-11 5.77 6666
1925 1925-09-04 7.58 1,1906
1926 1926-05-05   8226
1927 1927-06-18 10.05 1,5201,6
1928 1928-05-27 8.48 1,1006
1929 1929-05-24 6.54 6366
1930 1930-06-08 7.52 8676
1931 1931-05-07 6.77 6856
1932 1932-06-29 9.43 1,4601,6
1958 1958-06-24 7.626 1,8606
1959 1959-06-06 4.28 5936
1960 1960-07-28 4.262 5646
1961 1961-08-13 7.30 7726
1962 1962-06-13 5.33 7106
1963 1963-06-18 8.47 2,0806
1964 1964-05-20 4.79 6296
1965 1965-06-12 7.11 1,3606
1966 1966-05-06 5.15 6856
1967 1967-07-04 8.49 2,0906
1968 1968-05-06 4.92 5806
1969 1969-06-02 8.52 1,8806
1970 1970-06-05 6.79 1,2906
1971 1971-06-27 7.62 1,5606
1972 1972-05-30 5.07 6616
1973 1973-06-01 8.04 1,7206
1974 1974-06-07 7.65 1,5806
1975 1975-06-07 7.88 1,7606
1976 1976-05-18 4.58 5216
1977 1977-06-19 4.66 5016
1978 1978-06-24 5.94 8606
1979 1979-05-29 7.46 1,5006
1980 1980-07-03 8.00 1,8606
1981 1981-05-13 4.61 5126
1982 1982-06-30 7.70 1,7106
1983 1983-07-08 8.75 2,3106
1984 1984-05-31 7.68 1,7406
1985 1985-04-18 4.68 5606
1986 1986-06-04 8.28 2,0906
1987 1987-05-01 4.50 5346
1988 1988-05-16 4.42 4176
1989 1989-06-30 5.00 5836
1990 1990-05-07 4.51 4406
1991 1991-06-13 4.86 5406
1992 1992-05-10 4.79 5196
1993 1993-05-25 6.13 9826
1994 1994-05-31 4.72 5546
1995 1995-07-11 9.32 2,6006
1996 1996-05-17 8.17 1,9506
1997 1997-01-03 13.68 11,5006
1998 1998-07-09 6.53 1,6306
1999 1999-06-16 6.92 2,1606
2000 2000-05-28 3.93 6616
2001 2001-05-12 3.95 6686
2002 2002-05-19 4.04 7016
2003 2003-05-25 4.65 9176
2004 2004-05-06 4.00 6156
2005 2005-05-30 7.25 2,0806
2006 2006-05-21 7.65 2,3506
2007 2007-05-28 3.18 4686
2008 2008-05-19 4.17 7306
2009 2009-07-07 3.71 5586
2010 2010-06-30 5.75 1,3506
2011 2011-06-30 7.00 1,9806
2012 2012-04-29 3.26 4766
2013 2013-06-05 3.34 5126
2014 2014-05-30 2.79 3246
2015 2015-06-13 3.03 3586
2016 2016-06-25 3.90 5586
2017 2017-06-20 8.33 2,8606
2018 2018-04-08 5.28 1,2806
2019 2019-06-13 7.07 2,0206
2020 2020-06-05 2.96 4456
?
  Peak Gage-Height Qualification Codes.
?
  Peak Streamflow Qualification Codes.